EKCH

Copenhagen Kastrup Airport

Copenhagen, Denmark
METAR EKCH 181320Z 15015KT 6000 OVC008 04/03 Q1023 NOSIG
Observed Flight Rules
Dec-18 @ 13:20 UTC (20 minutes ago) Instrument Flight Rules
Wind Visibility Clouds
150° at 15 knots 6,003 meters
  • Overcast at 800' AGL
Temperatures Readings
Current 4°C / 39°F
Dewpoint 3°C / 37°F
Humidity 93%
Altimeter 30.21" Hg
Pressure 1023 hPa
Elevation 5
METAR EKCH 181320Z 15015KT 6000 OVC008 04/03 Q1023 NOSIG
Observed Flight Rules
Dec-18 @ 13:20 UTC
(20 minutes ago)
IFR
Wind Visibility
150° at 15 knots 6,003 meters
Clouds
  • Overcast at 800' AGL
Temperature Dewpoint
4°C / 39°F 3°C / 37°F
Humidity Altimeter Pressure
93% 30.21" Hg 1023 hPa